sensor_id;sensor_type;location;lat;lon;timestamp;pressure;altitude;pressure_sealevel;temperature;humidity
13594;BME280;6449;47.666;9.160;2023-04-28T00:02:45;96877.78;;;12.79;100.00
13594;BME280;6449;47.666;9.160;2023-04-28T00:07:41;96880.88;;;12.94;100.00
13594;BME280;6449;47.666;9.160;2023-04-28T00:12:35;96874.69;;;12.95;100.00
13594;BME280;6449;47.666;9.160;2023-04-28T00:17:28;96874.34;;;12.89;100.00
13594;BME280;6449;47.666;9.160;2023-04-28T00:22:21;96870.13;;;12.76;100.00
13594;BME280;6449;47.666;9.160;2023-04-28T00:27:16;96862.91;;;12.69;100.00
13594;BME280;6449;47.666;9.160;2023-04-28T00:32:10;96865.53;;;12.69;100.00
13594;BME280;6449;47.666;9.160;2023-04-28T00:37:04;96861.13;;;12.69;100.00
13594;BME280;6449;47.666;9.160;2023-04-28T00:41:58;96853.91;;;12.71;100.00
13594;BME280;6449;47.666;9.160;2023-04-28T00:46:53;96846.03;;;12.71;100.00
13594;BME280;6449;47.666;9.160;2023-04-28T00:51:46;96842.41;;;12.72;100.00
13594;BME280;6449;47.666;9.160;2023-04-28T00:56:40;96833.09;;;12.58;100.00
13594;BME280;6449;47.666;9.160;2023-04-28T01:01:34;96830.41;;;12.49;100.00
13594;BME280;6449;47.666;9.160;2023-04-28T01:06:42;96837.03;;;12.43;100.00
13594;BME280;6449;47.666;9.160;2023-04-28T01:12:26;96821.38;;;12.42;100.00
13594;BME280;6449;47.666;9.160;2023-04-28T01:18:00;96827.03;;;12.37;100.00
13594;BME280;6449;47.666;9.160;2023-04-28T01:23:19;96822.78;;;12.25;100.00
13594;BME280;6449;47.666;9.160;2023-04-28T01:28:14;96824.97;;;12.20;100.00
13594;BME280;6449;47.666;9.160;2023-04-28T01:33:08;96827.53;;;12.31;100.00
13594;BME280;6449;47.666;9.160;2023-04-28T01:38:01;96825.41;;;12.46;100.00
13594;BME280;6449;47.666;9.160;2023-04-28T01:42:55;96811.41;;;12.45;100.00
13594;BME280;6449;47.666;9.160;2023-04-28T01:47:50;96807.97;;;12.24;100.00
13594;BME280;6449;47.666;9.160;2023-04-28T01:52:43;96810.09;;;12.30;100.00
13594;BME280;6449;47.666;9.160;2023-04-28T01:57:36;96806.50;;;12.10;100.00
13594;BME280;6449;47.666;9.160;2023-04-28T02:02:30;96797.53;;;12.13;100.00
13594;BME280;6449;47.666;9.160;2023-04-28T02:07:25;96807.06;;;12.14;100.00
13594;BME280;6449;47.666;9.160;2023-04-28T02:12:18;96813.59;;;11.98;100.00
13594;BME280;6449;47.666;9.160;2023-04-28T02:17:12;96813.56;;;11.89;100.00
13594;BME280;6449;47.666;9.160;2023-04-28T02:22:05;96816.28;;;11.87;100.00
13594;BME280;6449;47.666;9.160;2023-04-28T02:27:00;96824.69;;;12.02;100.00
13594;BME280;6449;47.666;9.160;2023-04-28T02:31:53;96839.13;;;12.07;100.00
13594;BME280;6449;47.666;9.160;2023-04-28T02:36:47;96854.78;;;12.09;100.00
13594;BME280;6449;47.666;9.160;2023-04-28T02:41:40;96854.69;;;11.99;100.00
13594;BME280;6449;47.666;9.160;2023-04-28T02:46:35;96845.41;;;11.95;100.00
13594;BME280;6449;47.666;9.160;2023-04-28T02:51:29;96837.22;;;12.10;100.00
13594;BME280;6449;47.666;9.160;2023-04-28T02:56:22;96827.66;;;12.09;100.00
13594;BME280;6449;47.666;9.160;2023-04-28T03:01:16;96808.34;;;12.19;100.00
13594;BME280;6449;47.666;9.160;2023-04-28T03:06:11;96810.66;;;11.92;100.00
13594;BME280;6449;47.666;9.160;2023-04-28T03:11:04;96824.56;;;11.83;100.00
13594;BME280;6449;47.666;9.160;2023-04-28T03:15:58;96816.50;;;11.95;100.00
13594;BME280;6449;47.666;9.160;2023-04-28T03:20:51;96817.03;;;12.10;100.00
13594;BME280;6449;47.666;9.160;2023-04-28T03:25:46;96817.34;;;12.17;100.00
13594;BME280;6449;47.666;9.160;2023-04-28T03:30:39;96827.41;;;12.12;100.00
13594;BME280;6449;47.666;9.160;2023-04-28T03:35:33;96835.97;;;11.93;100.00
13594;BME280;6449;47.666;9.160;2023-04-28T03:40:26;96851.88;;;11.80;100.00
13594;BME280;6449;47.666;9.160;2023-04-28T03:45:21;96824.06;;;11.89;100.00
13594;BME280;6449;47.666;9.160;2023-04-28T03:50:14;96817.47;;;11.94;100.00
13594;BME280;6449;47.666;9.160;2023-04-28T03:55:09;96822.16;;;11.79;100.00
13594;BME280;6449;47.666;9.160;2023-04-28T04:00:03;96795.19;;;11.77;100.00
13594;BME280;6449;47.666;9.160;2023-04-28T04:04:58;96801.28;;;11.78;100.00
13594;BME280;6449;47.666;9.160;2023-04-28T04:09:52;96817.69;;;11.59;100.00
13594;BME280;6449;47.666;9.160;2023-04-28T04:14:45;96802.25;;;11.66;100.00
13594;BME280;6449;47.666;9.160;2023-04-28T04:19:42;96792.66;;;11.76;100.00
13594;BME280;6449;47.666;9.160;2023-04-28T04:24:39;96784.53;;;11.90;100.00
13594;BME280;6449;47.666;9.160;2023-04-28T04:29:50;96798.38;;;11.81;100.00
13594;BME280;6449;47.666;9.160;2023-04-28T04:34:44;96790.75;;;11.78;100.00
13594;BME280;6449;47.666;9.160;2023-04-28T04:39:37;96791.28;;;11.72;100.00
13594;BME280;6449;47.666;9.160;2023-04-28T04:44:31;96799.63;;;11.66;100.00
13594;BME280;6449;47.666;9.160;2023-04-28T04:49:25;96802.59;;;11.72;100.00
13594;BME280;6449;47.666;9.160;2023-04-28T04:54:25;96804.25;;;11.85;100.00
13594;BME280;6449;47.666;9.160;2023-04-28T04:59:20;96805.00;;;11.64;100.00
13594;BME280;6449;47.666;9.160;2023-04-28T05:04:15;96786.59;;;11.75;100.00
13594;BME280;6449;47.666;9.160;2023-04-28T05:09:10;96778.31;;;11.80;100.00
13594;BME280;6449;47.666;9.160;2023-04-28T05:14:04;96770.19;;;11.62;100.00
13594;BME280;6449;47.666;9.160;2023-04-28T05:18:57;96771.84;;;11.63;100.00
13594;BME280;6449;47.666;9.160;2023-04-28T05:23:51;96773.38;;;11.66;100.00
13594;BME280;6449;47.666;9.160;2023-04-28T05:28:46;96777.28;;;11.50;100.00
13594;BME280;6449;47.666;9.160;2023-04-28T05:33:39;96782.06;;;11.45;100.00
13594;BME280;6449;47.666;9.160;2023-04-28T05:38:32;96768.94;;;11.66;100.00
13594;BME280;6449;47.666;9.160;2023-04-28T05:43:27;96758.16;;;11.80;100.00
13594;BME280;6449;47.666;9.160;2023-04-28T05:48:22;96757.22;;;11.82;100.00
13594;BME280;6449;47.666;9.160;2023-04-28T05:53:15;96752.31;;;11.88;100.00
13594;BME280;6449;47.666;9.160;2023-04-28T05:58:09;96762.56;;;11.80;100.00
13594;BME280;6449;47.666;9.160;2023-04-28T06:03:02;96754.22;;;11.86;100.00
13594;BME280;6449;47.666;9.160;2023-04-28T06:07:58;96760.56;;;11.84;100.00
13594;BME280;6449;47.666;9.160;2023-04-28T06:12:51;96759.78;;;11.93;100.00
13594;BME280;6449;47.666;9.160;2023-04-28T06:17:44;96767.09;;;11.89;100.00
13594;BME280;6449;47.666;9.160;2023-04-28T06:23:16;96760.81;;;12.01;100.00
13594;BME280;6449;47.666;9.160;2023-04-28T06:29:45;96760.22;;;11.98;100.00
13594;BME280;6449;47.666;9.160;2023-04-28T06:34:56;96760.19;;;11.88;100.00
13594;BME280;6449;47.666;9.160;2023-04-28T06:39:51;96745.25;;;11.89;100.00
13594;BME280;6449;47.666;9.160;2023-04-28T06:44:44;96736.03;;;11.94;100.00
13594;BME280;6449;47.666;9.160;2023-04-28T06:49:37;96740.44;;;11.94;100.00
13594;BME280;6449;47.666;9.160;2023-04-28T06:54:33;96733.63;;;11.91;100.00
13594;BME280;6449;47.666;9.160;2023-04-28T06:59:30;96734.84;;;12.08;100.00
13594;BME280;6449;47.666;9.160;2023-04-28T07:04:24;96740.94;;;12.09;100.00
13594;BME280;6449;47.666;9.160;2023-04-28T07:09:18;96731.31;;;11.98;100.00
13594;BME280;6449;47.666;9.160;2023-04-28T07:14:11;96726.78;;;12.00;100.00
13594;BME280;6449;47.666;9.160;2023-04-28T07:19:06;96719.16;;;11.97;100.00
13594;BME280;6449;47.666;9.160;2023-04-28T07:24:00;96721.91;;;11.95;100.00
13594;BME280;6449;47.666;9.160;2023-04-28T07:28:53;96713.72;;;12.10;100.00
13594;BME280;6449;47.666;9.160;2023-04-28T07:33:56;96706.19;;;12.26;100.00
13594;BME280;6449;47.666;9.160;2023-04-28T07:38:52;96712.66;;;12.22;100.00
13594;BME280;6449;47.666;9.160;2023-04-28T07:43:45;96716.06;;;12.13;100.00
13594;BME280;6449;47.666;9.160;2023-04-28T07:48:39;96716.72;;;12.05;100.00
13594;BME280;6449;47.666;9.160;2023-04-28T07:53:32;96730.75;;;12.15;100.00
13594;BME280;6449;47.666;9.160;2023-04-28T07:58:27;96772.81;;;12.15;100.00
13594;BME280;6449;47.666;9.160;2023-04-28T08:03:21;96753.13;;;12.10;100.00
13594;BME280;6449;47.666;9.160;2023-04-28T08:08:14;96768.56;;;12.03;100.00
13594;BME280;6449;47.666;9.160;2023-04-28T08:13:08;96751.84;;;12.04;100.00
13594;BME280;6449;47.666;9.160;2023-04-28T08:18:03;96764.13;;;12.03;100.00
13594;BME280;6449;47.666;9.160;2023-04-28T08:22:56;96777.16;;;12.05;100.00
13594;BME280;6449;47.666;9.160;2023-04-28T08:27:50;96769.97;;;12.07;100.00
13594;BME280;6449;47.666;9.160;2023-04-28T08:32:43;96759.16;;;12.00;100.00
13594;BME280;6449;47.666;9.160;2023-04-28T08:37:38;96763.94;;;12.16;100.00
13594;BME280;6449;47.666;9.160;2023-04-28T08:42:32;96761.47;;;12.15;100.00
13594;BME280;6449;47.666;9.160;2023-04-28T08:47:34;96750.38;;;12.11;100.00
13594;BME280;6449;47.666;9.160;2023-04-28T08:52:29;96767.84;;;12.22;100.00
13594;BME280;6449;47.666;9.160;2023-04-28T08:57:26;96777.75;;;12.39;100.00
13594;BME280;6449;47.666;9.160;2023-04-28T09:02:20;96777.97;;;12.47;100.00
13594;BME280;6449;47.666;9.160;2023-04-28T09:07:13;96768.00;;;12.51;100.00
13594;BME280;6449;47.666;9.160;2023-04-28T09:12:07;96770.94;;;12.57;100.00
13594;BME280;6449;47.666;9.160;2023-04-28T09:17:08;96759.66;;;12.76;100.00
13594;BME280;6449;47.666;9.160;2023-04-28T09:22:03;96754.00;;;12.81;100.00
13594;BME280;6449;47.666;9.160;2023-04-28T09:27:25;96759.78;;;12.75;100.00
13594;BME280;6449;47.666;9.160;2023-04-28T09:32:22;96756.63;;;12.81;100.00
13594;BME280;6449;47.666;9.160;2023-04-28T09:37:17;96759.78;;;12.75;100.00
13594;BME280;6449;47.666;9.160;2023-04-28T09:42:31;96762.25;;;12.67;100.00
13594;BME280;6449;47.666;9.160;2023-04-28T09:47:27;96769.50;;;12.74;100.00
13594;BME280;6449;47.666;9.160;2023-04-28T09:52:21;96768.13;;;12.80;100.00
13594;BME280;6449;47.666;9.160;2023-04-28T09:57:15;96759.38;;;12.70;100.00
13594;BME280;6449;47.666;9.160;2023-04-28T10:02:09;96761.03;;;12.71;100.00
13594;BME280;6449;47.666;9.160;2023-04-28T10:07:26;96771.81;;;12.68;100.00
13594;BME280;6449;47.666;9.160;2023-04-28T10:12:23;96774.72;;;12.65;100.00
13594;BME280;6449;47.666;9.160;2023-04-28T10:17:17;96778.03;;;12.67;100.00
13594;BME280;6449;47.666;9.160;2023-04-28T10:22:50;96782.06;;;12.71;100.00
13594;BME280;6449;47.666;9.160;2023-04-28T10:27:48;96772.06;;;12.65;100.00
13594;BME280;6449;47.666;9.160;2023-04-28T10:32:42;96773.44;;;12.90;100.00
13594;BME280;6449;47.666;9.160;2023-04-28T10:38:03;96760.19;;;13.10;100.00
13594;BME280;6449;47.666;9.160;2023-04-28T10:43:46;96758.16;;;13.33;100.00
13594;BME280;6449;47.666;9.160;2023-04-28T10:48:56;96750.97;;;13.74;100.00
13594;BME280;6449;47.666;9.160;2023-04-28T10:54:16;96753.03;;;13.51;100.00
13594;BME280;6449;47.666;9.160;2023-04-28T10:59:26;96752.63;;;13.66;100.00
13594;BME280;6449;47.666;9.160;2023-04-28T11:04:21;96749.59;;;13.80;100.00
13594;BME280;6449;47.666;9.160;2023-04-28T11:09:48;96752.22;;;13.60;100.00
13594;BME280;6449;47.666;9.160;2023-04-28T11:14:43;96753.63;;;13.65;100.00
13594;BME280;6449;47.666;9.160;2023-04-28T11:19:39;96750.97;;;13.65;100.00
13594;BME280;6449;47.666;9.160;2023-04-28T11:24:34;96748.88;;;13.39;100.00
13594;BME280;6449;47.666;9.160;2023-04-28T11:29:33;96751.66;;;13.28;100.00
13594;BME280;6449;47.666;9.160;2023-04-28T11:34:27;96748.59;;;13.23;100.00
13594;BME280;6449;47.666;9.160;2023-04-28T11:39:26;96754.81;;;13.31;100.00
13594;BME280;6449;47.666;9.160;2023-04-28T11:44:22;96757.88;;;13.36;100.00
13594;BME280;6449;47.666;9.160;2023-04-28T11:49:17;96752.34;;;13.30;100.00
13594;BME280;6449;47.666;9.160;2023-04-28T11:54:11;96746.41;;;13.38;100.00
13594;BME280;6449;47.666;9.160;2023-04-28T11:59:08;96738.47;;;13.47;100.00
13594;BME280;6449;47.666;9.160;2023-04-28T12:04:03;96743.63;;;13.58;100.00
13594;BME280;6449;47.666;9.160;2023-04-28T12:08:58;96743.50;;;13.70;100.00
13594;BME280;6449;47.666;9.160;2023-04-28T12:14:07;96735.72;;;13.78;100.00
13594;BME280;6449;47.666;9.160;2023-04-28T12:19:01;96736.13;;;13.83;100.00
13594;BME280;6449;47.666;9.160;2023-04-28T12:24:00;96731.50;;;14.04;100.00
13594;BME280;6449;47.666;9.160;2023-04-28T12:28:54;96733.75;;;14.46;100.00
13594;BME280;6449;47.666;9.160;2023-04-28T12:33:47;96723.16;;;14.65;100.00
13594;BME280;6449;47.666;9.160;2023-04-28T12:38:47;96707.81;;;14.79;100.00
13594;BME280;6449;47.666;9.160;2023-04-28T12:43:42;96705.47;;;15.03;100.00
13594;BME280;6449;47.666;9.160;2023-04-28T12:48:35;96700.56;;;15.26;100.00
13594;BME280;6449;47.666;9.160;2023-04-28T12:53:29;96698.16;;;15.33;100.00
13594;BME280;6449;47.666;9.160;2023-04-28T12:58:22;96691.06;;;15.33;100.00
13594;BME280;6449;47.666;9.160;2023-04-28T13:03:17;96702.00;;;15.20;100.00
13594;BME280;6449;47.666;9.160;2023-04-28T13:08:12;96707.84;;;14.97;100.00
13594;BME280;6449;47.666;9.160;2023-04-28T13:13:06;96691.94;;;14.88;100.00
13594;BME280;6449;47.666;9.160;2023-04-28T13:17:59;96699.47;;;14.83;100.00
13594;BME280;6449;47.666;9.160;2023-04-28T13:22:54;96684.72;;;15.08;100.00
13594;BME280;6449;47.666;9.160;2023-04-28T13:27:47;96663.44;;;15.28;100.00
13594;BME280;6449;47.666;9.160;2023-04-28T13:32:40;96660.88;;;15.36;100.00
13594;BME280;6449;47.666;9.160;2023-04-28T13:37:34;96657.91;;;15.39;100.00
13594;BME280;6449;47.666;9.160;2023-04-28T13:42:34;96651.13;;;15.36;100.00
13594;BME280;6449;47.666;9.160;2023-04-28T13:47:28;96649.84;;;15.40;100.00
13594;BME280;6449;47.666;9.160;2023-04-28T13:52:23;96657.34;;;15.45;100.00
13594;BME280;6449;47.666;9.160;2023-04-28T13:57:16;96639.44;;;15.39;100.00
13594;BME280;6449;47.666;9.160;2023-04-28T14:02:11;96641.69;;;15.52;100.00
13594;BME280;6449;47.666;9.160;2023-04-28T14:07:05;96623.81;;;15.63;100.00
13594;BME280;6449;47.666;9.160;2023-04-28T14:11:58;96621.63;;;15.85;100.00
13594;BME280;6449;47.666;9.160;2023-04-28T14:16:56;96607.47;;;15.94;100.00
13594;BME280;6449;47.666;9.160;2023-04-28T14:21:53;96613.38;;;15.44;100.00
13594;BME280;6449;47.666;9.160;2023-04-28T14:26:46;96617.09;;;15.33;100.00
13594;BME280;6449;47.666;9.160;2023-04-28T14:31:54;96618.31;;;15.21;100.00
13594;BME280;6449;47.666;9.160;2023-04-28T14:38:08;96612.91;;;15.05;100.00
13594;BME280;6449;47.666;9.160;2023-04-28T14:43:23;96625.50;;;14.93;100.00
13594;BME280;6449;47.666;9.160;2023-04-28T14:49:16;96620.97;;;15.03;100.00
13594;BME280;6449;47.666;9.160;2023-04-28T14:55:03;96606.94;;;15.20;100.00
13594;BME280;6449;47.666;9.160;2023-04-28T15:00:54;96596.69;;;15.43;100.00
13594;BME280;6449;47.666;9.160;2023-04-28T15:06:07;96588.03;;;15.51;100.00
13594;BME280;6449;47.666;9.160;2023-04-28T15:11:12;96578.47;;;15.58;100.00
13594;BME280;6449;47.666;9.160;2023-04-28T15:16:11;96594.22;;;15.86;100.00
13594;BME280;6449;47.666;9.160;2023-04-28T15:21:13;96581.09;;;15.76;100.00
13594;BME280;6449;47.666;9.160;2023-04-28T15:26:33;96562.31;;;15.61;100.00
13594;BME280;6449;47.666;9.160;2023-04-28T15:31:31;96560.53;;;15.44;100.00
13594;BME280;6449;47.666;9.160;2023-04-28T15:36:42;96574.94;;;15.24;100.00
13594;BME280;6449;47.666;9.160;2023-04-28T15:41:45;96571.56;;;15.13;100.00
13594;BME280;6449;47.666;9.160;2023-04-28T15:46:46;96575.53;;;15.17;100.00
13594;BME280;6449;47.666;9.160;2023-04-28T15:51:39;96550.09;;;15.34;100.00
13594;BME280;6449;47.666;9.160;2023-04-28T15:56:33;96530.28;;;15.38;100.00
13594;BME280;6449;47.666;9.160;2023-04-28T16:01:30;96532.72;;;15.58;100.00
13594;BME280;6449;47.666;9.160;2023-04-28T16:06:24;96529.09;;;15.59;100.00
13594;BME280;6449;47.666;9.160;2023-04-28T16:11:17;96524.81;;;15.58;100.00
13594;BME280;6449;47.666;9.160;2023-04-28T16:16:11;96528.03;;;15.69;100.00
13594;BME280;6449;47.666;9.160;2023-04-28T16:21:06;96515.50;;;15.71;100.00
13594;BME280;6449;47.666;9.160;2023-04-28T16:25:59;96512.59;;;15.83;100.00
13594;BME280;6449;47.666;9.160;2023-04-28T16:30:53;96507.94;;;15.77;100.00
13594;BME280;6449;47.666;9.160;2023-04-28T16:35:53;96507.44;;;15.81;100.00
13594;BME280;6449;47.666;9.160;2023-04-28T16:40:48;96514.72;;;15.79;100.00
13594;BME280;6449;47.666;9.160;2023-04-28T16:45:42;96513.22;;;15.77;100.00
13594;BME280;6449;47.666;9.160;2023-04-28T16:50:35;96513.06;;;15.78;100.00
13594;BME280;6449;47.666;9.160;2023-04-28T16:55:33;96518.00;;;15.73;100.00
13594;BME280;6449;47.666;9.160;2023-04-28T17:00:28;96497.97;;;15.70;100.00
13594;BME280;6449;47.666;9.160;2023-04-28T17:05:22;96473.88;;;15.74;100.00
13594;BME280;6449;47.666;9.160;2023-04-28T17:10:17;96479.53;;;15.79;100.00
13594;BME280;6449;47.666;9.160;2023-04-28T17:15:13;96504.31;;;15.78;100.00
13594;BME280;6449;47.666;9.160;2023-04-28T17:20:11;96522.13;;;15.76;100.00
13594;BME280;6449;47.666;9.160;2023-04-28T17:25:09;96508.88;;;15.67;100.00
13594;BME280;6449;47.666;9.160;2023-04-28T17:30:03;96518.75;;;15.65;100.00
13594;BME280;6449;47.666;9.160;2023-04-28T17:35:18;96511.81;;;15.64;100.00
13594;BME280;6449;47.666;9.160;2023-04-28T17:40:49;96526.16;;;15.62;100.00
13594;BME280;6449;47.666;9.160;2023-04-28T17:46:25;96523.00;;;15.58;100.00
13594;BME280;6449;47.666;9.160;2023-04-28T17:51:21;96529.72;;;15.53;100.00
13594;BME280;6449;47.666;9.160;2023-04-28T17:56:14;96534.50;;;15.49;100.00
13594;BME280;6449;47.666;9.160;2023-04-28T18:01:08;96529.84;;;15.43;100.00
13594;BME280;6449;47.666;9.160;2023-04-28T18:06:11;96547.91;;;15.30;100.00
13594;BME280;6449;47.666;9.160;2023-04-28T18:12:18;96536.16;;;15.24;100.00
13594;BME280;6449;47.666;9.160;2023-04-28T18:17:11;96537.59;;;15.18;100.00
13594;BME280;6449;47.666;9.160;2023-04-28T18:27:12;96559.88;;;15.42;100.00
13594;BME280;6449;47.666;9.160;2023-04-28T18:32:07;96555.13;;;15.45;100.00
13594;BME280;6449;47.666;9.160;2023-04-28T18:37:05;96550.31;;;15.41;100.00
13594;BME280;6449;47.666;9.160;2023-04-28T18:42:02;96559.16;;;15.32;100.00
13594;BME280;6449;47.666;9.160;2023-04-28T18:47:00;96559.09;;;15.24;100.00
13594;BME280;6449;47.666;9.160;2023-04-28T18:52:48;96564.09;;;15.09;100.00
13594;BME280;6449;47.666;9.160;2023-04-28T19:18:54;96587.03;;;14.73;100.00
13594;BME280;6449;47.666;9.160;2023-04-28T19:30:08;96603.06;;;14.61;100.00
13594;BME280;6449;47.666;9.160;2023-04-28T19:35:08;96605.47;;;14.55;100.00
13594;BME280;6449;47.666;9.160;2023-04-28T19:40:15;96611.84;;;14.52;100.00
13594;BME280;6449;47.666;9.160;2023-04-28T19:45:09;96614.94;;;14.48;100.00
13594;BME280;6449;47.666;9.160;2023-04-28T19:50:03;96625.06;;;14.42;100.00
13594;BME280;6449;47.666;9.160;2023-04-28T19:55:20;96619.94;;;14.41;100.00
13594;BME280;6449;47.666;9.160;2023-04-28T20:05:42;96634.44;;;14.27;100.00
13594;BME280;6449;47.666;9.160;2023-04-28T20:10:42;96638.59;;;14.30;100.00
13594;BME280;6449;47.666;9.160;2023-04-28T20:15:40;96632.34;;;14.31;100.00
13594;BME280;6449;47.666;9.160;2023-04-28T20:41:03;96652.00;;;14.09;100.00
13594;BME280;6449;47.666;9.160;2023-04-28T20:45:58;96657.06;;;13.83;100.00
13594;BME280;6449;47.666;9.160;2023-04-28T20:50:52;96658.59;;;13.85;100.00
13594;BME280;6449;47.666;9.160;2023-04-28T20:55:46;96666.75;;;13.92;100.00
13594;BME280;6449;47.666;9.160;2023-04-28T21:00:41;96672.00;;;14.02;100.00
13594;BME280;6449;47.666;9.160;2023-04-28T21:05:35;96663.94;;;14.03;100.00
13594;BME280;6449;47.666;9.160;2023-04-28T21:10:29;96661.75;;;13.99;100.00
13594;BME280;6449;47.666;9.160;2023-04-28T21:15:23;96674.66;;;13.92;100.00
13594;BME280;6449;47.666;9.160;2023-04-28T21:40:46;96646.28;;;13.76;100.00
13594;BME280;6449;47.666;9.160;2023-04-28T21:45:40;96665.03;;;13.63;100.00
13594;BME280;6449;47.666;9.160;2023-04-28T21:50:34;96652.78;;;13.72;100.00
13594;BME280;6449;47.666;9.160;2023-04-28T21:55:27;96642.66;;;13.77;100.00
13594;BME280;6449;47.666;9.160;2023-04-28T22:00:23;96647.66;;;13.80;100.00
13594;BME280;6449;47.666;9.160;2023-04-28T22:05:17;96653.47;;;13.84;100.00
13594;BME280;6449;47.666;9.160;2023-04-28T22:10:11;96646.28;;;13.76;100.00
13594;BME280;6449;47.666;9.160;2023-04-28T22:15:06;96655.44;;;13.53;100.00
13594;BME280;6449;47.666;9.160;2023-04-28T22:20:01;96651.84;;;13.63;100.00
13594;BME280;6449;47.666;9.160;2023-04-28T22:24:55;96645.03;;;13.71;100.00
13594;BME280;6449;47.666;9.160;2023-04-28T22:29:48;96642.09;;;13.74;100.00
13594;BME280;6449;47.666;9.160;2023-04-28T22:34:42;96630.16;;;13.79;100.00
13594;BME280;6449;47.666;9.160;2023-04-28T22:49:51;96625.78;;;13.60;100.00
13594;BME280;6449;47.666;9.160;2023-04-28T22:54:44;96623.44;;;13.57;100.00
13594;BME280;6449;47.666;9.160;2023-04-28T22:59:38;96623.47;;;13.38;100.00
13594;BME280;6449;47.666;9.160;2023-04-28T23:04:31;96619.97;;;13.47;100.00
13594;BME280;6449;47.666;9.160;2023-04-28T23:09:26;96624.69;;;13.53;100.00
13594;BME280;6449;47.666;9.160;2023-04-28T23:14:20;96626.34;;;13.54;100.00
13594;BME280;6449;47.666;9.160;2023-04-28T23:19:13;96626.75;;;13.59;100.00
13594;BME280;6449;47.666;9.160;2023-04-28T23:24:09;96625.94;;;13.49;100.00
13594;BME280;6449;47.666;9.160;2023-04-28T23:29:03;96629.00;;;13.54;100.00
13594;BME280;6449;47.666;9.160;2023-04-28T23:33:57;96628.69;;;13.57;100.00
13594;BME280;6449;47.666;9.160;2023-04-28T23:38:50;96632.47;;;13.45;100.00
13594;BME280;6449;47.666;9.160;2023-04-28T23:43:44;96625.25;;;13.47;100.00
13594;BME280;6449;47.666;9.160;2023-04-28T23:48:38;96622.50;;;13.49;100.00
13594;BME280;6449;47.666;9.160;2023-04-28T23:53:32;96630.50;;;13.47;100.00
13594;BME280;6449;47.666;9.160;2023-04-28T23:58:30;96620.84;;;13.38;100.00
